Date,TemperatureHighF,TemperatureAvgF,TemperatureLowF,DewpointHighF,DewpointAvgF,DewpointLowF,HumidityHigh,HumidityAvg,HumidityLow,PressureMaxIn,PressureMinIn,WindSpeedMaxMPH,WindSpeedAvgMPH,GustSpeedMaxMPH,PrecipitationSumIn
2013-1-1,26,11,-2,14,5,-6,88,77,52,30.42,30.25,3,1,6,0.00
2013-1-2,26,11,-1,7,1,-6,84,67,35,30.62,30.42,4,2,7,0.00
2013-1-3,33,11,-3,4,-4,-7,82,58,19,30.65,30.52,4,2,7,0.00
2013-1-4,43,23,7,11,3,-8,67,45,21,30.57,30.19,4,2,9,0.00
2013-1-5,39,24,9,15,8,4,82,52,30,30.44,30.18,5,2,10,0.00
2013-1-6,44,24,7,12,5,-3,84,50,15,30.45,30.15,5,2,10,0.00
2013-1-7,47,33,16,15,9,2,71,41,16,30.15,29.86,3,1,7,0.00
2013-1-8,50,35,17,16,9,-3,69,38,16,30.26,29.83,5,1,13,0.00
2013-1-9,45,30,17,18,14,11,80,54,29,30.44,30.19,5,1,8,0.00
2013-1-10,42,33,16,20,13,9,77,46,27,30.19,29.56,4,1,7,0.00
2013-1-11,39,24,3,20,4,-12,71,44,20,29.84,29.27,16,5,21,0.00
2013-1-12,17,6,-4,1,-6,-13,83,60,29,30.28,29.84,4,1,9,0.00
2013-1-13,16,4,-4,4,-2,-9,84,76,45,30.44,30.27,5,1,7,0.00
2013-1-14,12,4,-8,6,-1,-13,83,80,74,30.43,30.30,4,0,5,0.00
2013-1-15,27,11,-9,16,2,-14,85,67,37,30.57,30.40,3,1,6,0.00
2013-1-16,45,28,12,20,15,8,85,61,34,30.48,30.34,4,1,7,0.00
2013-1-17,44,26,15,20,14,10,82,65,36,30.58,30.39,4,1,8,0.00
2013-1-18,53,28,14,14,5,-5,79,45,10,30.40,30.21,4,2,8,0.00
2013-1-19,51,32,18,10,6,0,55,37,13,30.37,30.22,4,2,8,0.00
2013-1-20,45,30,18,14,7,-2,76,40,18,30.30,30.17,5,2,8,0.00
2013-1-21,48,28,11,14,10,6,84,54,22,30.32,30.22,5,2,8,0.00
2013-2-6,51,38,27,29,25,18,89,63,28,30.00,29.76,4,2,10,0.00
2013-2-7,40,29,13,27,21,9,90,74,54,30.18,30.00,4,1,8,0.11
2013-2-8,46,30,15,23,17,10,84,60,33,30.17,29.77,5,2,12,0.00
2013-2-9,40,26,18,22,18,14,87,74,41,29.77,29.45,5,2,9,0.00
2013-2-10,27,21,17,19,15,12,87,78,55,29.96,29.58,5,2,9,0.02
2013-2-11,18,13,4,14,8,0,85,83,80,30.27,30.13,5,2,9,0.00
2013-2-12,33,16,2,11,1,-8,86,58,19,30.37,30.27,3,2,7,0.01
2013-2-13,42,23,9,16,10,0,77,61,26,30.27,30.10,4,2,8,0.01
2013-2-14,34,21,15,21,14,10,82,73,49,30.41,30.13,6,2,17,0.00
2013-2-15,34,19,6,17,11,2,88,73,42,30.50,30.36,6,1,11,0.00
2013-2-16,51,29,9,18,11,5,85,55,20,30.48,30.11,7,2,10,0.00
2013-2-17,54,37,18,15,2,-10,67,29,8,30.10,29.57,11,4,18,0.00
2013-2-18,36,26,18,17,10,-1,84,58,20,30.09,29.66,6,3,10,0.01
2013-3-13,57,45,30,31,24,20,92,47,25,30.45,30.26,4,2,7,0.01
2013-3-14,61,46,28,26,22,17,79,45,20,30.29,30.13,5,2,7,0.00
2013-3-15,65,47,29,28,23,16,78,44,16,30.13,29.78,5,2,13,0.00
2013-3-16,44,36,32,26,24,22,71,62,43,29.85,29.79,5,2,13,0.00
2013-4-21,52,39,31,28,25,20,76,59,29,29.97,29.92,4,2,0,0.01
2013-4-22,49,28,17,28,21,13,85,77,45,30.20,29.82,5,2,21,0.01
2013-4-23,26,19,12,20,14,9,87,81,67,30.41,30.16,4,1,21,0.09
2013-4-24,48,29,11,24,16,8,89,61,29,30.41,30.30,5,1,8,0.03
2013-4-25,58,42,24,37,23,15,79,50,25,30.31,29.85,6,2,13,0.01
2013-4-26,60,47,33,28,21,14,70,38,17,30.13,29.91,5,2,11,0.01
2013-4-27,67,48,28,31,20,12,80,43,14,30.12,29.94,5,2,9,0.00
2013-4-28,72,52,30,31,21,14,68,36,12,29.98,29.72,6,2,9,0.00
2013-4-29,74,56,34,35,26,16,77,38,12,29.74,29.44,10,3,16,0.00
2013-4-30,65,50,36,38,30,23,77,49,26,29.73,29.44,5,3,10,0.00
2013-5-1,36,27,19,30,24,16,89,86,79,30.63,29.73,5,2,10,0.10
2013-5-2,38,27,15,22,17,11,87,69,41,30.81,30.57,4,1,8,0.31
2013-5-3,55,38,19,25,20,14,87,55,24,30.57,30.10,5,2,9,0.00
2013-5-4,56,40,25,28,24,20,82,56,31,30.17,30.01,4,2,7,0.00
2013-5-5,50,38,27,22,18,13,76,48,28,30.17,30.05,6,2,15,0.00
2013-5-6,62,46,29,36,27,18,78,51,30,30.13,29.83,6,2,9,0.00
2013-5-7,64,50,35,36,32,28,85,54,27,29.83,29.71,7,2,9,0.00
2013-5-8,51,41,36,40,36,33,89,81,58,29.99,29.76,4,1,7,0.13
2013-5-9,49,39,32,41,35,30,93,86,67,30.18,29.98,7,1,11,0.67
2013-5-10,58,43,30,40,33,28,93,73,36,30.25,30.16,7,2,12,0.12
2013-5-11,56,46,35,46,36,32,92,71,43,30.29,30.15,6,2,12,0.07
2013-5-12,70,52,33,40,34,29,90,56,25,30.17,30.00,5,2,10,0.00
2013-5-13,76,58,39,44,36,32,77,49,22,30.02,29.91,9,3,10,0.00
2013-5-15,48,46,44,43,42,40,87,86,84,29.73,29.72,1,1,2,0.12
2013-5-16,74,57,39,46,36,28,93,53,19,29.72,29.61,7,2,11,0.00
2013-5-17,78,61,41,48,28,10,90,40,8,29.65,29.51,7,2,17,0.00
2013-5-18,52,46,40,36,28,22,68,50,42,29.61,29.57,3,2,8,0.00
2013-5-19,60,48,36,38,32,25,82,58,28,29.71,29.54,6,1,10,0.00
2013-5-20,58,43,31,44,35,26,91,76,36,29.95,29.71,7,2,7,0.24
2013-5-21,65,47,32,39,33,28,93,65,28,29.97,29.78,5,2,9,0.02
2013-5-22,69,52,34,40,35,30,88,56,25,29.85,29.71,6,2,8,0.00
2013-5-23,55,47,43,46,42,39,92,81,61,29.92,29.82,5,2,10,0.00
2013-5-24,78,60,48,50,35,13,93,53,9,29.91,29.67,10,3,14,0.00
2013-5-25,79,61,40,46,26,5,87,39,6,29.74,29.58,9,3,19,0.00
2013-5-26,80,64,46,44,28,13,64,32,10,29.66,29.53,6,2,19,0.00
2013-5-27,75,60,40,43,27,14,78,35,11,29.57,29.43,7,2,11,0.00
2013-5-28,75,56,38,49,38,27,91,54,23,29.56,29.33,7,2,11,0.00
2013-5-29,61,52,44,45,40,27,87,65,39,29.52,29.28,6,2,13,0.00
2013-5-30,66,48,36,33,25,17,76,46,16,29.67,29.50,8,2,13,0.00
2013-5-31,66,54,44,29,19,11,54,27,13,29.82,29.64,12,5,19,0.00
2013-6-1,62,50,38,37,31,16,74,48,31,30.06,29.82,6,2,9,0.00
2013-6-2,74,57,38,40,33,25,76,44,17,30.06,29.66,5,2,14,0.00
2013-6-3,83,65,42,42,27,18,67,30,9,29.67,29.45,11,4,17,0.00
2013-6-4,73,60,47,51,37,20,90,47,24,29.83,29.57,9,2,11,0.03
2013-6-5,52,46,42,45,42,39,92,86,75,30.04,29.82,5,2,10,0.01
2013-6-6,72,56,36,47,40,33,94,61,25,30.03,29.86,5,1,7,0.00
2013-6-7,72,58,40,44,38,33,83,51,28,29.89,29.64,7,2,12,0.00
2013-6-8,72,60,44,48,40,34,71,49,27,29.77,29.56,6,3,14,0.00
2013-6-9,83,65,40,40,33,28,77,37,14,29.81,29.69,5,2,13,0.00
2013-6-10,92,71,49,43,30,21,57,27,8,29.72,29.51,5,2,9,0.00
2013-6-11,92,74,51,40,23,-1,46,22,3,29.59,29.42,12,5,14,0.00
2013-6-18,75,61,52,52,46,44,74,60,36,29.74,29.65,4,2,14,0.02
2013-6-19,84,65,49,53,43,20,93,55,16,29.74,29.44,6,2,14,0.00
2013-6-20,87,68,45,39,26,-3,52,26,3,29.61,29.48,7,2,12,0.00
2013-6-21,88,69,47,45,26,9,73,28,6,29.56,29.42,10,2,17,0.00
2013-6-22,84,69,52,46,33,18,70,33,9,29.56,29.42,8,2,14,0.00
2013-6-23,80,66,48,45,41,33,81,44,21,29.65,29.50,6,2,17,0.00
2013-6-24,83,66,45,48,32,14,79,40,9,29.63,29.48,11,3,15,0.00
2013-6-25,87,71,53,33,24,18,42,18,10,29.67,29.50,6,2,10,0.00
2013-6-26,89,71,51,49,37,31,57,32,14,29.77,29.67,6,2,9,0.00
2013-6-27,92,75,54,44,38,26,66,31,11,29.87,29.74,5,2,10,0.00
2013-6-28,88,74,55,53,46,38,75,43,19,29.92,29.71,7,2,10,0.10
2013-6-29,78,64,52,54,50,40,89,62,29,29.92,29.77,5,2,10,0.04
2013-6-30,72,60,53,56,50,44,86,71,51,29.98,29.82,5,1,7,0.33
2013-7-1,68,57,47,57,50,45,93,79,58,30.06,29.96,5,1,8,0.24
2013-7-2,76,60,46,52,46,36,93,65,25,30.06,29.89,5,1,13,0.01
2013-7-3,81,64,46,50,41,31,87,51,18,29.91,29.65,5,2,13,0.00
2013-7-4,84,66,48,46,42,36,81,46,19,29.70,29.59,7,2,9,0.00
2013-7-5,83,64,53,59,49,42,89,61,26,29.63,29.49,7,2,13,0.32
2013-7-6,82,65,54,56,50,42,88,62,27,29.73,29.60,4,1,8,0.12
2013-7-7,82,63,51,58,51,46,90,69,29,29.83,29.69,5,1,7,0.24
2013-7-8,86,70,53,54,48,40,90,52,20,29.84,29.70,9,2,13,0.06
2013-7-9,86,70,54,53,45,37,71,45,18,29.84,29.75,4,2,8,0.04
2013-7-10,82,66,56,60,50,43,88,57,35,29.85,29.71,6,2,11,0.83
2013-7-11,83,69,53,60,54,50,92,63,36,29.85,29.60,4,1,8,0.01
2013-7-12,84,70,56,56,52,47,77,55,30,29.67,29.55,4,2,7,0.00
2013-7-13,84,67,57,57,53,50,84,62,32,29.79,29.66,5,2,10,0.07
2013-7-14,75,64,52,60,54,49,91,72,50,29.89,29.76,5,2,9,1.63
2013-7-15,67,58,51,57,53,43,93,84,57,29.98,29.84,4,1,11,0.12
2013-7-16,71,59,47,53,48,44,90,70,42,30.03,29.92,5,2,12,0.01
2013-7-17,77,63,54,54,50,45,89,67,33,30.03,29.89,6,3,14,0.00
2013-7-18,84,68,50,57,50,46,89,56,30,29.90,29.69,5,2,7,0.00
2013-7-19,77,65,56,57,52,48,85,64,42,29.81,29.74,5,1,9,0.00
2013-7-20,82,67,55,60,52,43,92,62,27,29.80,29.58,5,1,8,0.00
2013-7-21,85,68,51,61,47,28,87,54,13,29.68,29.57,4,1,7,0.03
2013-7-22,86,70,52,48,42,30,73,42,15,29.68,29.60,6,2,10,0.00
2013-7-23,86,71,52,54,40,20,68,39,9,29.78,29.65,5,2,9,0.00
2013-7-24,69,61,53,60,55,48,92,82,60,29.91,29.72,9,1,17,0.64
2013-7-25,74,61,49,56,50,46,93,69,42,29.99,29.83,6,2,11,0.00
2013-7-26,77,63,48,54,48,45,90,63,37,30.03,29.91,5,2,9,0.00
2013-7-27,81,64,49,58,49,40,85,62,24,29.94,29.67,4,1,6,0.07
2013-7-28,66,58,54,58,54,51,92,88,74,29.77,29.62,5,1,8,0.27
2013-7-29,72,60,50,58,53,45,93,80,46,29.96,29.70,10,1,11,0.99
2013-7-30,78,63,47,58,49,44,93,66,35,30.00,29.93,6,1,8,0.02
2013-7-31,79,65,50,56,51,45,84,62,33,30.00,29.86,6,2,13,0.07
2013-8-1,82,64,54,60,53,44,90,71,28,29.92,29.69,6,1,9,0.11
2013-8-2,83,68,54,55,49,42,87,54,25,29.76,29.65,6,1,9,0.05
2013-8-3,76,62,54,60,54,49,88,75,54,29.99,29.74,5,1,8,0.04
2013-8-4,80,61,50,64,52,43,92,75,28,29.95,29.78,5,1,7,0.61
2013-8-5,79,64,51,56,50,44,91,64,29,29.90,29.76,5,1,8,0.01
2013-8-6,80,65,53,51,47,39,83,56,24,29.77,29.67,6,1,9,0.00
2013-8-7,64,58,54,55,51,47,88,78,62,29.82,29.72,4,1,5,0.11
2013-8-8,68,58,51,56,51,44,91,78,59,29.93,29.78,5,1,8,0.00
2013-8-9,69,55,44,54,47,41,91,77,55,30.05,29.92,5,1,10,0.18
2013-8-10,76,60,49,60,49,42,91,70,41,30.05,29.89,5,1,9,0.00
2013-8-11,74,59,50,56,48,43,90,70,39,29.95,29.83,5,1,7,0.53
2013-8-12,74,58,47,56,49,44,91,73,47,29.99,29.91,4,1,7,0.02
2013-8-13,70,57,46,55,49,43,91,75,45,30.01,29.92,4,1,8,0.35
2013-8-14,75,60,47,54,48,44,89,66,33,30.01,29.86,4,1,6,0.02
2013-8-15,78,69,48,53,44,36,86,46,24,29.92,29.84,4,2,7,0.00
2013-8-16,81,64,48,55,45,31,87,56,17,29.91,29.83,4,2,8,0.00
2013-8-17,83,67,49,58,46,34,80,53,18,29.89,29.75,4,1,5,0.00
2013-8-18,84,66,52,58,49,37,87,57,20,29.85,29.71,5,1,6,0.02
2013-8-19,79,58,50,54,47,44,87,71,31,29.84,29.78,3,1,6,0.00
2013-9-12,63,57,54,57,53,50,87,84,79,30.00,29.89,4,1,6,1.59
2013-9-13,65,57,54,57,52,49,88,84,74,29.91,29.70,4,2,11,1.05
2013-9-14,71,57,47,58,49,43,88,76,54,29.75,29.62,4,1,9,0.05
2013-9-15,55,53,51,49,47,45,84,82,81,29.89,29.76,3,1,6,0.00
2013-9-16,58,54,50,53,49,46,87,84,82,30.04,29.92,5,2,8,0.15
2013-9-17,76,60,44,51,46,39,86,64,29,29.94,29.61,4,1,8,0.00
2013-9-18,76,61,47,50,45,42,81,59,32,29.67,29.54,10,3,12,0.01
2013-9-19,60,54,48,47,43,33,75,66,53,29.97,29.62,5,2,9,0.00
2013-9-20,64,53,47,51,45,41,84,75,59,29.98,29.86,5,1,8,0.00
2013-9-21,75,59,44,48,42,36,85,58,25,29.90,29.60,4,1,9,0.01
2013-9-22,71,55,45,50,43,39,82,66,35,29.60,29.34,10,2,10,0.17
2013-9-23,62,49,36,43,36,30,84,65,32,29.94,29.26,6,2,8,0.51
2013-9-24,67,50,33,39,32,27,81,54,27,30.06,29.78,5,2,9,0.00
2013-9-25,76,60,40,42,32,24,80,40,17,29.78,29.32,6,3,17,0.00
2013-9-26,73,59,45,43,34,23,78,43,23,29.45,29.32,5,2,17,0.00
2013-9-27,67,49,35,48,37,30,83,66,36,29.82,29.43,5,2,10,0.00
2013-9-28,62,43,26,32,25,22,83,53,25,30.12,29.82,5,1,9,0.00
2013-9-29,72,52,33,36,27,17,73,43,17,30.10,29.78,7,2,11,0.00
2013-9-30,78,57,40,46,34,19,73,47,22,29.80,29.55,5,2,9,0.00
2013-10-1,70,57,43,42,35,29,75,46,27,29.81,29.67,5,2,9,0.00
2013-10-2,71,55,40,42,37,32,80,55,25,29.77,29.65,4,2,6,0.00
2013-10-3,69,54,40,42,35,27,83,55,21,29.64,29.45,5,2,8,0.00
2013-10-4,46,34,25,41,29,20,84,81,70,30.14,29.46,6,3,14,0.08
2013-10-5,54,35,22,23,18,10,81,55,17,30.31,30.14,6,2,14,0.00
2013-10-6,65,44,26,33,23,14,73,48,22,30.30,30.19,5,2,8,0.00
2013-10-7,72,52,32,37,26,17,71,42,15,30.19,29.82,3,1,7,0.00
2013-10-8,70,54,42,39,27,20,64,39,16,29.82,29.52,6,2,9,0.00
2013-10-9,68,52,38,39,32,27,78,51,24,29.73,29.61,4,2,8,0.00
2013-10-10,59,46,38,42,36,23,83,69,44,29.73,29.38,10,2,13,0.03
2013-10-11,54,42,37,38,32,22,84,69,36,29.94,29.45,5,1,7,0.06
2013-10-12,50,41,36,39,34,30,85,77,61,30.11,29.93,5,2,11,0.00
2013-10-13,59,44,30,45,35,26,86,73,48,30.14,29.82,4,2,11,0.09
2013-10-14,54,43,31,39,33,23,85,71,32,30.01,29.65,10,3,18,0.01
2013-10-15,35,31,27,26,24,20,82,75,65,30.26,30.01,5,2,13,0.00
2013-10-16,49,34,25,30,23,20,86,69,33,30.25,30.03,4,2,9,0.00
2013-10-17,50,36,24,31,25,20,83,67,39,30.13,29.98,4,2,7,0.00
2013-10-18,37,30,25,28,24,20,83,77,62,30.22,29.98,4,1,11,0.17
2013-10-19,57,36,22,29,22,17,83,63,26,30.22,29.95,4,2,11,0.00
2013-10-20,46,35,28,33,27,21,83,72,43,30.13,29.90,6,2,9,0.03
2013-10-21,51,33,22,31,23,18,86,70,31,30.25,30.13,4,1,7,0.07
2013-10-22,60,40,28,32,27,23,82,62,30,30.26,30.12,4,2,8,0.00
2013-10-23,64,44,29,36,27,23,80,57,24,30.14,30.05,4,2,7,0.00
2013-10-24,57,41,30,36,30,24,81,68,45,30.20,30.08,4,1,7,0.00
2013-10-25,64,44,27,36,28,23,85,59,22,30.19,30.05,4,2,9,0.00
2013-10-26,58,44,34,34,30,27,79,61,34,30.19,30.08,4,2,7,0.00
2013-10-27,64,44,29,30,24,18,81,51,18,30.08,29.78,7,2,12,0.00
2013-10-28,42,36,29,33,28,24,83,73,47,29.96,29.77,5,2,11,0.00
2013-10-29,54,36,24,32,27,20,87,72,37,29.99,29.83,5,1,7,0.02
2013-10-30,51,37,28,31,25,17,85,66,28,29.84,29.70,7,2,11,0.00
2013-10-31,54,34,19,24,18,14,82,57,21,29.95,29.76,7,2,15,0.00
2013-11-1,44,36,25,29,23,17,80,60,46,30.25,29.94,5,2,8,0.00
2013-11-2,56,38,22,27,21,15,83,55,25,30.27,29.83,5,2,9,0.00
2013-11-3,60,48,31,26,19,10,77,34,17,29.84,29.44,11,5,20,0.00
2013-11-4,36,29,22,27,21,16,84,73,54,30.01,29.59,7,2,13,0.00
2013-11-5,36,25,11,24,15,5,83,66,41,30.28,29.90,6,2,13,0.00
2013-11-6,48,28,9,16,11,4,82,53,25,30.51,30.27,8,2,13,0.00
2013-11-7,52,34,19,20,16,12,77,51,27,30.51,30.11,4,2,7,0.00
2013-11-8,64,48,29,19,15,10,63,30,12,30.11,29.73,10,3,15,0.00
2013-11-9,54,39,27,26,23,16,75,54,32,30.23,29.91,4,2,10,0.00
2013-11-10,62,40,25,31,21,13,81,55,15,30.24,30.14,5,2,8,0.00
2013-11-11,62,38,27,29,20,15,84,57,16,30.54,30.21,4,2,7,0.00
2013-11-12,52,34,21,29,24,17,84,69,37,30.60,30.46,4,1,7,0.00
2013-11-13,64,40,24,23,11,0,79,40,8,30.46,30.01,4,2,8,0.00
2013-11-14,55,41,33,31,25,12,78,54,30,30.01,29.72,5,2,9,0.00
2013-11-15,55,40,25,27,18,13,82,47,19,29.72,29.41,11,3,17,0.00
2013-11-16,51,41,26,28,19,13,80,45,23,29.44,29.27,13,6,24,0.00
2013-11-17,49,34,23,22,18,14,80,53,26,30.14,29.44,6,2,15,0.00
2013-11-18,55,34,18,18,11,6,75,43,16,30.21,30.08,5,2,10,0.00
2013-11-19,58,39,24,20,15,11,64,41,20,30.08,29.73,8,2,8,0.00
2013-11-20,53,39,25,30,22,18,77,53,30,29.85,29.70,3,1,8,0.00
2013-11-21,36,14,7,30,9,3,83,82,78,30.76,29.85,5,3,10,0.00
2013-11-22,28,21,11,21,16,7,82,80,70,30.83,30.71,4,1,10,0.01
2013-11-23,28,22,17,20,12,3,83,69,37,30.73,30.49,4,2,10,0.00
2013-11-24,31,23,17,27,19,13,86,82,65,30.49,30.09,6,2,11,0.00
2013-11-25,32,26,18,25,19,13,81,73,56,30.41,30.11,8,3,16,0.00
2013-11-26,40,27,16,21,17,12,82,68,39,30.54,30.40,4,2,16,0.00
2013-11-27,53,30,16,25,17,12,82,62,23,30.40,30.18,4,2,7,0.00
2013-11-28,42,31,20,26,21,15,83,69,52,30.26,30.18,5,2,8,0.00
2013-11-29,53,35,19,21,17,13,83,55,22,30.24,30.15,7,3,12,0.00
2013-11-30,53,35,21,18,14,8,74,49,18,30.24,30.15,6,2,12,0.00
2013-12-1,52,43,32,23,17,12,66,37,23,30.20,29.90,8,3,11,0.00
2013-12-2,53,42,27,23,20,18,74,43,26,29.91,29.49,9,4,20,0.00
2013-12-3,51,36,9,26,17,5,83,51,32,29.52,29.27,12,5,19,0.00
2013-12-4,9,2,-11,5,-3,-16,83,80,77,30.40,29.51,4,2,8,0.00
2013-12-5,4,-4,-12,-1,-8,-17,83,81,78,30.54,30.35,5,1,9,0.00
2013-12-6,4,-5,-16,-2,-10,-20,82,79,72,30.72,30.52,4,1,8,0.00
2013-12-7,6,0,-9,2,-5,-13,83,81,77,30.69,30.13,5,2,12,0.00
2013-12-8,21,10,0,14,5,-5,83,80,71,30.27,30.03,5,2,8,0.01
2013-12-9,21,9,-1,7,-2,-5,83,65,39,30.48,30.26,5,1,7,0.00
2013-12-10,42,23,2,14,7,-5,78,53,29,30.49,30.13,14,4,17,0.00
2013-12-11,30,17,10,17,10,4,83,74,56,30.62,30.35,4,2,11,0.00
2013-12-12,53,29,14,19,9,1,69,50,12,30.61,30.05,4,2,5,0.00
2013-12-13,44,29,17,17,11,6,67,49,22,30.17,29.86,6,2,13,0.00
2013-12-14,38,24,12,16,12,8,82,65,37,30.36,30.18,5,2,7,0.00
2013-12-15,54,33,18,21,15,10,77,53,21,30.39,30.20,6,2,9,0.00
2013-12-16,57,37,24,21,16,12,71,47,17,30.26,30.09,5,2,10,0.00
2013-12-17,54,34,23,22,17,14,74,54,23,30.38,30.17,4,2,7,0.00
2013-12-18,59,44,31,22,16,9,63,36,14,30.17,29.64,7,2,11,0.00
2013-12-19,53,37,20,26,20,15,83,54,22,29.67,29.43,5,2,11,0.00
2013-12-20,28,20,15,25,16,11,85,84,83,29.82,29.66,4,1,9,0.00
2013-12-21,32,20,11,22,14,7,84,78,54,30.00,29.68,5,1,7,0.00
2013-12-22,31,18,7,20,11,2,85,75,48,30.36,30.00,3,1,6,0.01
2013-12-23,36,20,10,21,14,6,84,79,53,30.49,30.35,4,2,6,0.00
2013-12-24,49,33,11,24,18,7,82,58,25,30.38,30.03,10,4,19,0.00
2013-12-25,36,21,9,10,6,3,82,56,27,30.56,30.27,4,2,19,0.00
2013-12-26,47,29,17,14,10,7,69,49,22,30.47,30.37,4,2,6,0.00
2013-12-27,55,31,18,23,15,10,75,56,23,30.40,30.15,3,2,5,0.00
2013-12-28,53,32,19,22,18,14,81,60,24,30.14,29.86,6,2,8,0.00
2013-12-29,28,18,11,19,13,7,83,79,66,30.24,30.12,4,2,7,0.01
2013-12-30,41,28,15,18,14,11,83,57,36,30.39,30.19,3,1,7,0.00
2013-12-31,51,31,18,24,17,11,78,59,28,30.22,30.00,7,2,12,0.00
2014-1-1,35,25,12,26,18,7,82,76,58,30.36,29.93,5,2,9,0.00
2014-1-2,44,25,11,24,14,6,85,66,25,30.43,30.19,4,1,11,0.01